Albertville, Wisconsin
Current Conditions -  °F | °C
As of 2:55 AM on Wednesday 22 Oct 2014 (Local Time) from KLUM Reporting Station
Clear Clear  
Wind Chill: 31°   Ceiling: Unl
Heat Index: 36°   Visibility: 10mi
Dew Point: 33°   Wind: 6mph
Humidity: 90%   Direction: 110°ESE
Pressure: 30.24"   Gusts: NA
Location:  45.0099°N, 91.7075°W
Report Text: KLUM 220755Z AUTO 11005KT 10SM CLR 02/01 A3024 RMK AO2 T00230008
Loading
Personal Weather Stations






























Interactive Weather Map
Tropical Storm Tracking
New forecast layout! Learn more

10-Day Weather Forecast

Advertisements
Track Severe Weather on mobile